Time;durP1;ratioP1;P1;durP2;ratioP2;P2;SDS_P1;SDS_P2;PMS_P1;PMS_P2;Temp;Humidity;BMP_temperature;BMP_pressure;BME280_temperature;BME280_humidity;BME280_pressure;Samples;Min_cycle;Max_cycle;Signal;HPM_P1;HPM_P2
2022/07/18 00:02:06;;;;;;;11.60;4.90;;;;;;;;;;5114812;28;20099;-80
2022/07/18 00:04:32;;;;;;;12.80;3.65;;;;;;;;;;5115128;28;20456;-80
2022/07/18 00:06:58;;;;;;;7.88;3.60;;;;;;;;;;5114885;28;20073;-80
2022/07/18 00:09:25;;;;;;;10.80;3.85;;;;;;;;;;5115047;28;20471;-79
2022/07/18 00:11:51;;;;;;;7.13;3.42;;;;;;;;;;5114121;28;20035;-79
2022/07/18 00:14:18;;;;;;;6.53;3.33;;;;;;;;;;5114690;28;20015;-79
2022/07/18 00:16:44;;;;;;;10.25;3.85;;;;;;;;;;5115203;28;20346;-79
2022/07/18 00:19:10;;;;;;;10.98;3.60;;;;;;;;;;5095665;28;20032;-80
2022/07/18 00:21:36;;;;;;;8.77;3.25;;;;;;;;;;5094540;28;20024;-80
2022/07/18 00:24:02;;;;;;;8.68;3.78;;;;;;;;;;5094174;28;20454;-79
2022/07/18 00:26:28;;;;;;;5.55;3.38;;;;;;;;;;5094230;28;20024;-80
2022/07/18 00:28:54;;;;;;;7.25;3.60;;;;;;;;;;5093915;28;20555;-79
2022/07/18 00:31:21;;;;;;;8.10;3.40;;;;;;;;;;5094696;28;20431;-79
2022/07/18 00:33:47;;;;;;;8.63;3.28;;;;;;;;;;5092601;28;20032;-79
2022/07/18 00:36:13;;;;;;;6.68;3.30;;;;;;;;;;5094139;28;20103;-79
2022/07/18 00:38:39;;;;;;;8.20;3.17;;;;;;;;;;5093876;28;20051;-79
2022/07/18 00:41:05;;;;;;;6.97;2.92;;;;;;;;;;5093962;28;20074;-79
2022/07/18 00:43:31;;;;;;;7.63;3.83;;;;;;;;;;5093734;28;20020;-79
2022/07/18 00:45:57;;;;;;;7.93;3.40;;;;;;;;;;5104804;28;20020;-79
2022/07/18 00:48:23;;;;;;;6.25;3.05;;;;;;;;;;5114455;28;20454;-79
2022/07/18 00:50:49;;;;;;;10.40;3.13;;;;;;;;;;5114220;28;20023;-79
2022/07/18 00:53:15;;;;;;;5.88;3.45;;;;;;;;;;5114367;28;20031;-79
2022/07/18 00:55:43;;;;;;;7.72;3.20;;;;;;;;;;5114134;28;20032;-79
2022/07/18 00:58:09;;;;;;;7.78;3.22;;;;;;;;;;5114401;28;20034;-79
2022/07/18 01:03:21;;;;;;;6.38;3.20;;;;;;;;;;5114284;28;20098;-79
2022/07/18 01:05:47;;;;;;;6.15;3.38;;;;;;;;;;5113774;28;20016;-79
2022/07/18 01:08:13;;;;;;;5.95;3.33;;;;;;;;;;5113966;28;20050;-79
2022/07/18 01:10:39;;;;;;;4.97;2.95;;;;;;;;;;5113931;28;20110;-79
2022/07/18 01:13:05;;;;;;;7.82;3.03;;;;;;;;;;5113775;28;20100;-79
2022/07/18 01:15:31;;;;;;;6.72;3.42;;;;;;;;;;5114223;28;20027;-79
2022/07/18 01:17:57;;;;;;;8.85;3.38;;;;;;;;;;5113496;28;20020;-79
2022/07/18 01:20:27;;;;;;;6.65;3.08;;;;;;;;;;5113781;28;20028;-79
2022/07/18 01:22:53;;;;;;;5.43;3.00;;;;;;;;;;5113605;28;20027;-79
2022/07/18 01:25:19;;;;;;;5.80;3.53;;;;;;;;;;5113566;28;20031;-79
2022/07/18 01:27:45;;;;;;;5.93;3.15;;;;;;;;;;5113544;28;20051;-79
2022/07/18 01:30:11;;;;;;;6.03;2.80;;;;;;;;;;5112339;28;20366;-79
2022/07/18 01:32:37;;;;;;;8.32;3.40;;;;;;;;;;5113710;28;20027;-79
2022/07/18 01:35:04;;;;;;;8.85;3.30;;;;;;;;;;5112237;28;20031;-79
2022/07/18 01:37:30;;;;;;;7.57;3.00;;;;;;;;;;5113853;28;20027;-79
2022/07/18 01:39:56;;;;;;;8.27;3.40;;;;;;;;;;5112477;28;20042;-79
2022/07/18 01:42:22;;;;;;;6.57;3.25;;;;;;;;;;5113667;28;20438;-79
2022/07/18 01:44:49;;;;;;;11.32;3.40;;;;;;;;;;5112648;28;20048;-79
2022/07/18 01:47:15;;;;;;;7.85;3.42;;;;;;;;;;5092938;28;20028;-79
2022/07/18 01:49:42;;;;;;;9.13;3.30;;;;;;;;;;5093352;28;20028;-79
2022/07/18 01:52:08;;;;;;;11.57;3.58;;;;;;;;;;5093257;28;20047;-79
2022/07/18 01:54:35;;;;;;;10.35;3.17;;;;;;;;;;5093151;28;20016;-79
2022/07/18 01:57:02;;;;;;;9.77;3.42;;;;;;;;;;5075128;28;20035;-79
2022/07/18 01:59:28;;;;;;;7.30;2.92;;;;;;;;;;5093038;28;20035;-79
2022/07/18 02:01:54;;;;;;;10.77;3.42;;;;;;;;;;5092992;28;20463;-79
2022/07/18 02:04:58;;;;;;;9.68;3.53;;;;;;;;;;5093085;28;20020;-79
2022/07/18 02:07:06;;;;;;;10.02;3.50;;;;;;;;;;5092609;28;20020;-79
2022/07/18 02:09:33;;;;;;;8.23;3.35;;;;;;;;;;5092898;28;20028;-79
2022/07/18 02:11:59;;;;;;;6.25;3.00;;;;;;;;;;5093296;28;20020;-79
2022/07/18 02:14:25;;;;;;;8.90;3.08;;;;;;;;;;5092899;28;20016;-79
2022/07/18 02:16:51;;;;;;;10.25;3.67;;;;;;;;;;5092983;28;20028;-79
2022/07/18 02:19:17;;;;;;;7.03;3.10;;;;;;;;;;5093080;28;20035;-79
2022/07/18 02:21:43;;;;;;;7.68;2.92;;;;;;;;;;5092888;28;20024;-79
2022/07/18 02:24:09;;;;;;;5.00;2.92;;;;;;;;;;5093242;28;20862;-79
2022/07/18 02:26:35;;;;;;;5.70;3.03;;;;;;;;;;5092932;28;20039;-79
2022/07/18 02:29:01;;;;;;;10.52;2.80;;;;;;;;;;5092569;28;20054;-79
2022/07/18 02:31:27;;;;;;;7.78;3.08;;;;;;;;;;5092867;28;20028;-79
2022/07/18 02:33:53;;;;;;;5.03;2.92;;;;;;;;;;5092444;28;20638;-79
2022/07/18 02:36:19;;;;;;;12.60;2.92;;;;;;;;;;5095657;28;20024;-79
2022/07/18 02:38:45;;;;;;;6.53;3.22;;;;;;;;;;5096582;28;20448;-79
2022/07/18 02:41:11;;;;;;;4.57;2.80;;;;;;;;;;5096301;28;20046;-79
2022/07/18 02:43:37;;;;;;;5.25;3.05;;;;;;;;;;5096367;28;20016;-79
2022/07/18 02:46:03;;;;;;;9.00;2.70;;;;;;;;;;5108106;28;20028;-79
2022/07/18 02:48:29;;;;;;;8.00;2.83;;;;;;;;;;5116710;28;20831;-79
2022/07/18 02:50:55;;;;;;;5.50;2.70;;;;;;;;;;5116525;28;20368;-79
2022/07/18 02:53:23;;;;;;;7.00;3.28;;;;;;;;;;5116472;28;20415;-79
2022/07/18 02:55:50;;;;;;;8.43;3.55;;;;;;;;;;5116254;28;20067;-79
2022/07/18 02:58:16;;;;;;;12.02;3.30;;;;;;;;;;5116487;28;20107;-79
2022/07/18 03:00:42;;;;;;;6.82;3.08;;;;;;;;;;5116430;28;20012;-79
2022/07/18 03:03:08;;;;;;;8.07;3.00;;;;;;;;;;5116444;28;20019;-79
2022/07/18 03:05:34;;;;;;;7.18;3.15;;;;;;;;;;5116425;28;20381;-79
2022/07/18 03:08:00;;;;;;;5.00;2.83;;;;;;;;;;5116268;28;20023;-78
2022/07/18 03:10:26;;;;;;;6.15;2.80;;;;;;;;;;5115954;28;20469;-79
2022/07/18 03:12:52;;;;;;;7.18;2.88;;;;;;;;;;5116328;28;20035;-79
2022/07/18 03:15:18;;;;;;;9.13;2.90;;;;;;;;;;5116127;28;20020;-79
2022/07/18 03:17:44;;;;;;;9.25;3.10;;;;;;;;;;5109465;28;20016;-79
2022/07/18 03:20:10;;;;;;;7.25;3.05;;;;;;;;;;5095506;28;20016;-79
2022/07/18 03:22:36;;;;;;;9.30;2.90;;;;;;;;;;5095407;28;20428;-79
2022/07/18 03:25:03;;;;;;;7.63;3.35;;;;;;;;;;5095519;28;20085;-79
2022/07/18 03:27:29;;;;;;;7.30;3.05;;;;;;;;;;5095001;28;20056;-79
2022/07/18 03:29:55;;;;;;;6.60;3.13;;;;;;;;;;5095404;28;20761;-78
2022/07/18 03:32:21;;;;;;;10.70;3.55;;;;;;;;;;5095398;28;20103;-78
2022/07/18 03:34:47;;;;;;;8.57;3.13;;;;;;;;;;5096242;28;20024;-77
2022/07/18 03:37:13;;;;;;;11.48;3.50;;;;;;;;;;5095708;28;20478;-79
2022/07/18 03:39:39;;;;;;;5.03;2.45;;;;;;;;;;5094921;28;20035;-79
2022/07/18 03:42:05;;;;;;;10.98;2.60;;;;;;;;;;5094926;28;20069;-79
2022/07/18 03:44:31;;;;;;;5.60;2.60;;;;;;;;;;5094793;28;20113;-79
2022/07/18 03:46:57;;;;;;;5.60;2.90;;;;;;;;;;5113677;28;20023;-79
2022/07/18 03:49:23;;;;;;;9.90;2.80;;;;;;;;;;5113793;28;20019;-79
2022/07/18 03:51:49;;;;;;;8.88;2.80;;;;;;;;;;5114009;28;20358;-79
2022/07/18 03:54:15;;;;;;;6.28;2.75;;;;;;;;;;5115195;28;20103;-79
2022/07/18 03:56:41;;;;;;;6.82;2.75;;;;;;;;;;5115076;28;20047;-79
2022/07/18 03:59:07;;;;;;;6.88;2.85;;;;;;;;;;5114808;28;20031;-79
2022/07/18 04:01:33;;;;;;;8.88;2.63;;;;;;;;;;5115087;28;20024;-79
2022/07/18 04:03:59;;;;;;;13.18;2.95;;;;;;;;;;5115220;28;20055;-79
2022/07/18 04:06:25;;;;;;;11.63;2.78;;;;;;;;;;5114938;28;20073;-79
2022/07/18 04:08:52;;;;;;;10.10;3.15;;;;;;;;;;5115064;28;20020;-79
2022/07/18 04:11:19;;;;;;;10.27;2.95;;;;;;;;;;5115104;28;20026;-79
2022/07/18 04:13:45;;;;;;;7.30;2.70;;;;;;;;;;5114812;28;20157;-79
2022/07/18 04:16:11;;;;;;;9.15;2.60;;;;;;;;;;5114601;28;20093;-79
2022/07/18 04:18:37;;;;;;;7.32;2.83;;;;;;;;;;5100367;28;20381;-79
2022/07/18 04:21:03;;;;;;;7.72;2.53;;;;;;;;;;5094343;28;20028;-79
2022/07/18 04:23:29;;;;;;;5.05;2.72;;;;;;;;;;5094613;28;20032;-80
2022/07/18 04:25:56;;;;;;;5.50;2.50;;;;;;;;;;5094503;28;20433;-79
2022/07/18 04:28:22;;;;;;;5.70;2.67;;;;;;;;;;5094111;28;20192;-79
2022/07/18 04:30:48;;;;;;;6.90;2.83;;;;;;;;;;5094162;28;20020;-79
2022/07/18 04:33:14;;;;;;;6.78;2.80;;;;;;;;;;5094478;28;20036;-79
2022/07/18 04:35:41;;;;;;;8.07;2.85;;;;;;;;;;5094155;28;20020;-79
2022/07/18 04:38:08;;;;;;;7.50;2.90;;;;;;;;;;5094153;28;20081;-79
2022/07/18 04:40:34;;;;;;;6.32;2.50;;;;;;;;;;5094257;28;20081;-79
2022/07/18 04:43:00;;;;;;;6.38;2.40;;;;;;;;;;5094029;28;20024;-79
2022/07/18 04:45:26;;;;;;;11.48;2.60;;;;;;;;;;5100627;28;20446;-79
2022/07/18 04:47:52;;;;;;;10.02;3.20;;;;;;;;;;5114270;28;20394;-79
2022/07/18 04:50:19;;;;;;;14.02;3.58;;;;;;;;;;5114286;28;20098;-79
2022/07/18 04:52:46;;;;;;;13.82;4.07;;;;;;;;;;5113891;28;20032;-79
2022/07/18 04:55:13;;;;;;;21.67;3.53;;;;;;;;;;5114045;28;20020;-79
2022/07/18 04:57:39;;;;;;;14.40;3.40;;;;;;;;;;5113933;28;20042;-79
2022/07/18 05:00:06;;;;;;;15.35;3.15;;;;;;;;;;5114087;28;20065;-79
2022/07/18 05:02:33;;;;;;;8.35;2.80;;;;;;;;;;5114220;28;20063;-79
2022/07/18 05:04:59;;;;;;;12.30;2.95;;;;;;;;;;5113920;28;20076;-79
2022/07/18 05:07:25;;;;;;;7.82;3.20;;;;;;;;;;5113792;28;20501;-79
2022/07/18 05:09:51;;;;;;;15.30;3.42;;;;;;;;;;5114260;28;20446;-79
2022/07/18 05:12:18;;;;;;;8.10;2.75;;;;;;;;;;5114198;28;20019;-79
2022/07/18 05:14:44;;;;;;;19.10;2.97;;;;;;;;;;5112694;28;20369;-79
2022/07/18 05:17:10;;;;;;;14.32;3.08;;;;;;;;;;5111882;28;20019;-79
2022/07/18 05:19:36;;;;;;;12.90;3.10;;;;;;;;;;5093403;28;20031;-79
2022/07/18 05:22:02;;;;;;;12.93;3.15;;;;;;;;;;5093342;28;20021;-79
2022/07/18 05:24:28;;;;;;;14.50;3.53;;;;;;;;;;5093421;28;20581;-79
2022/07/18 05:26:54;;;;;;;8.65;2.90;;;;;;;;;;5093091;28;20028;-79
2022/07/18 05:29:20;;;;;;;11.13;3.20;;;;;;;;;;5093054;28;20061;-79
2022/07/18 05:31:46;;;;;;;12.13;3.22;;;;;;;;;;5093276;28;20027;-79
2022/07/18 05:34:12;;;;;;;8.50;3.00;;;;;;;;;;5093170;28;20020;-79
2022/07/18 05:36:38;;;;;;;16.88;3.97;;;;;;;;;;5093240;28;20066;-79
2022/07/18 05:39:04;;;;;;;7.72;2.90;;;;;;;;;;5093140;28;20031;-80
2022/07/18 05:41:30;;;;;;;12.60;3.10;;;;;;;;;;5094157;28;20369;-80
2022/07/18 05:43:56;;;;;;;13.30;3.28;;;;;;;;;;5113551;28;20493;-80
2022/07/18 05:46:23;;;;;;;8.10;2.70;;;;;;;;;;5098962;28;20063;-79
2022/07/18 05:48:49;;;;;;;6.63;2.72;;;;;;;;;;5093413;28;20032;-79
2022/07/18 05:51:15;;;;;;;9.02;2.83;;;;;;;;;;5093136;28;20458;-79
2022/07/18 05:53:41;;;;;;;9.73;2.75;;;;;;;;;;5093318;28;20028;-79
2022/07/18 05:56:07;;;;;;;17.20;3.08;;;;;;;;;;5093055;28;20024;-78
2022/07/18 05:58:33;;;;;;;13.75;3.55;;;;;;;;;;5074790;28;20444;-80
2022/07/18 06:01:00;;;;;;;13.63;2.63;;;;;;;;;;5093201;28;20028;-79
2022/07/18 06:03:26;;;;;;;6.10;2.58;;;;;;;;;;5092946;28;20028;-80
2022/07/18 06:05:52;;;;;;;7.70;2.25;;;;;;;;;;5092917;28;20024;-79
2022/07/18 06:08:18;;;;;;;6.93;2.70;;;;;;;;;;5092829;28;20028;-80
2022/07/18 06:10:44;;;;;;;11.13;2.47;;;;;;;;;;5094719;28;20047;-80
2022/07/18 06:13:10;;;;;;;7.78;3.05;;;;;;;;;;5096792;28;20379;-80
2022/07/18 06:15:36;;;;;;;10.43;2.80;;;;;;;;;;5096552;28;20362;-80
2022/07/18 06:18:02;;;;;;;9.20;2.90;;;;;;;;;;5105879;28;20031;-80
2022/07/18 06:20:28;;;;;;;9.43;3.45;;;;;;;;;;5117108;28;20016;-80
2022/07/18 06:22:54;;;;;;;11.38;2.88;;;;;;;;;;5116893;28;20099;-77
2022/07/18 06:25:20;;;;;;;11.25;2.70;;;;;;;;;;5116562;28;20024;-79
2022/07/18 06:27:46;;;;;;;6.15;2.45;;;;;;;;;;5116640;28;20054;-80
2022/07/18 06:30:12;;;;;;;11.55;2.85;;;;;;;;;;5116716;28;20027;-79
2022/07/18 06:32:39;;;;;;;15.25;2.60;;;;;;;;;;5116936;28;20102;-82
2022/07/18 06:35:06;;;;;;;16.60;2.80;;;;;;;;;;5116630;28;20391;-82
2022/07/18 06:37:32;;;;;;;18.83;2.50;;;;;;;;;;5098550;28;20223;-82
2022/07/18 06:39:58;;;;;;;12.73;2.80;;;;;;;;;;5116663;28;20060;-83
2022/07/18 06:42:24;;;;;;;8.50;1.92;;;;;;;;;;5116522;28;20031;-82
2022/07/18 06:44:50;;;;;;;12.10;2.28;;;;;;;;;;5116666;28;20027;-82
2022/07/18 06:47:16;;;;;;;13.63;1.63;;;;;;;;;;5116857;28;20028;-82
2022/07/18 06:49:42;;;;;;;16.67;2.10;;;;;;;;;;5116364;28;20031;-82
2022/07/18 06:52:11;;;;;;;7.05;2.40;;;;;;;;;;5116697;28;20035;-79
2022/07/18 06:54:38;;;;;;;6.15;1.90;;;;;;;;;;5116836;28;20030;-81
2022/07/18 06:57:07;;;;;;;6.97;1.73;;;;;;;;;;5116710;28;20149;-77
2022/07/18 06:59:33;;;;;;;6.00;1.58;;;;;;;;;;5116731;28;20036;-78
2022/07/18 07:02:00;;;;;;;4.55;1.75;;;;;;;;;;5116273;28;20051;-78
2022/07/18 07:04:26;;;;;;;8.20;2.00;;;;;;;;;;5116230;28;20054;-78
2022/07/18 07:06:52;;;;;;;8.65;1.88;;;;;;;;;;5116179;28;20035;-79
2022/07/18 07:09:18;;;;;;;7.65;1.85;;;;;;;;;;5116419;28;20466;-78
2022/07/18 07:11:44;;;;;;;6.35;1.98;;;;;;;;;;5116090;28;20386;-78
2022/07/18 07:14:10;;;;;;;3.30;1.48;;;;;;;;;;5116448;28;20117;-79
2022/07/18 07:16:36;;;;;;;8.35;1.58;;;;;;;;;;5116090;28;20028;-79
2022/07/18 07:19:02;;;;;;;6.88;1.77;;;;;;;;;;5098052;28;20496;-81
2022/07/18 07:21:28;;;;;;;6.88;1.50;;;;;;;;;;5100071;28;20466;-80
2022/07/18 07:23:54;;;;;;;9.52;1.58;;;;;;;;;;5116002;28;20045;-81
2022/07/18 07:26:20;;;;;;;11.10;2.13;;;;;;;;;;5115951;28;20018;-80
2022/07/18 07:28:46;;;;;;;7.68;2.03;;;;;;;;;;5115317;28;20044;-79
2022/07/18 07:31:12;;;;;;;9.02;1.55;;;;;;;;;;5114744;28;20084;-78
2022/07/18 07:33:38;;;;;;;7.15;2.03;;;;;;;;;;5114987;28;20023;-78
2022/07/18 07:36:05;;;;;;;8.93;2.00;;;;;;;;;;5115301;28;20028;-79
2022/07/18 07:38:31;;;;;;;3.90;1.75;;;;;;;;;;5115435;28;20145;-79
2022/07/18 07:41:01;;;;;;;9.52;1.80;;;;;;;;;;5115631;28;20051;-79
2022/07/18 07:43:27;;;;;;;5.65;1.75;;;;;;;;;;5115418;28;20023;-79
2022/07/18 07:45:55;;;;;;;4.63;1.65;;;;;;;;;;5115137;28;20027;-79
2022/07/18 07:48:21;;;;;;;7.10;1.60;;;;;;;;;;5115115;28;20088;-79
2022/07/18 07:50:48;;;;;;;6.60;1.52;;;;;;;;;;5115274;28;20027;-79
2022/07/18 07:53:14;;;;;;;7.85;1.75;;;;;;;;;;5115103;28;20157;-79
2022/07/18 07:55:40;;;;;;;8.60;1.70;;;;;;;;;;5114744;28;20065;-79
2022/07/18 07:58:07;;;;;;;4.53;1.65;;;;;;;;;;5114941;28;20050;-78
2022/07/18 08:00:33;;;;;;;8.10;1.67;;;;;;;;;;5115067;28;20021;-78
2022/07/18 08:03:03;;;;;;;5.53;1.50;;;;;;;;;;5115126;28;20107;-79
2022/07/18 08:05:30;;;;;;;5.88;1.30;;;;;;;;;;5115144;28;20027;-79
2022/07/18 08:07:57;;;;;;;10.65;2.20;;;;;;;;;;5115187;28;20357;-79
2022/07/18 08:10:23;;;;;;;8.23;1.73;;;;;;;;;;5114709;28;20497;-79
2022/07/18 08:12:49;;;;;;;8.95;1.77;;;;;;;;;;5115056;28;20035;-78
2022/07/18 08:15:15;;;;;;;7.05;1.77;;;;;;;;;;5114945;28;20028;-79
2022/07/18 08:17:41;;;;;;;6.88;2.20;;;;;;;;;;5114540;28;20019;-79
2022/07/18 08:20:08;;;;;;;9.82;2.05;;;;;;;;;;5114608;28;20024;-79
2022/07/18 08:22:34;;;;;;;11.32;2.15;;;;;;;;;;5114542;28;20030;-78
2022/07/18 08:25:00;;;;;;;9.68;2.00;;;;;;;;;;5114503;28;20062;-78
2022/07/18 08:27:27;;;;;;;5.53;1.88;;;;;;;;;;5114134;28;20047;-79
2022/07/18 08:29:53;;;;;;;8.13;2.10;;;;;;;;;;5114889;28;20458;-79
2022/07/18 08:32:19;;;;;;;6.97;2.17;;;;;;;;;;5113800;28;20458;-79
2022/07/18 08:34:45;;;;;;;7.20;3.03;;;;;;;;;;5114291;28;20023;-79
2022/07/18 08:37:11;;;;;;;10.70;2.08;;;;;;;;;;5114731;28;20098;-79
2022/07/18 08:39:37;;;;;;;8.40;1.95;;;;;;;;;;5114056;28;20027;-78
2022/07/18 08:42:03;;;;;;;8.85;2.10;;;;;;;;;;5114749;28;20027;-78
2022/07/18 08:44:30;;;;;;;8.52;2.00;;;;;;;;;;5114183;28;20027;-79
2022/07/18 08:46:57;;;;;;;8.57;1.85;;;;;;;;;;5113995;28;20072;-79
2022/07/18 08:49:23;;;;;;;9.82;1.95;;;;;;;;;;5114114;28;20394;-79
2022/07/18 08:51:49;;;;;;;7.55;2.05;;;;;;;;;;5114123;28;20051;-79
2022/07/18 08:54:16;;;;;;;6.13;1.95;;;;;;;;;;5113886;28;20023;-78
2022/07/18 08:56:42;;;;;;;9.27;1.98;;;;;;;;;;5114055;28;20035;-78
2022/07/18 08:59:08;;;;;;;13.52;1.83;;;;;;;;;;5113802;28;20039;-78
2022/07/18 09:01:34;;;;;;;7.78;1.95;;;;;;;;;;5114068;28;20027;-78
2022/07/18 09:04:17;;;;;;;4.60;1.75;;;;;;;;;;5113800;28;20023;-78
2022/07/18 09:06:44;;;;;;;7.18;1.58;;;;;;;;;;5113850;28;20400;-78
2022/07/18 09:09:11;;;;;;;9.40;2.25;;;;;;;;;;5113558;28;20024;-79
2022/07/18 09:11:37;;;;;;;7.43;1.60;;;;;;;;;;5114038;28;20472;-78
2022/07/18 09:14:03;;;;;;;13.07;1.30;;;;;;;;;;5113566;28;20031;-78
2022/07/18 09:16:29;;;;;;;5.82;1.50;;;;;;;;;;5113687;28;20715;-78
2022/07/18 09:18:55;;;;;;;6.22;1.80;;;;;;;;;;5097037;28;20030;-78
2022/07/18 09:21:22;;;;;;;6.03;1.80;;;;;;;;;;5092974;28;20020;-77
2022/07/18 09:23:49;;;;;;;5.03;1.50;;;;;;;;;;5092522;28;20394;-77
2022/07/18 09:26:34;;;;;;;4.95;1.42;;;;;;;;;;5094930;28;20454;-76
2022/07/18 09:29:00;;;;;;;6.45;1.38;;;;;;;;;;5110545;28;20413;-77
2022/07/18 09:31:26;;;;;;;7.00;1.40;;;;;;;;;;5110784;28;20023;-77
2022/07/18 09:33:53;;;;;;;8.20;1.42;;;;;;;;;;5111514;28;20019;-77
2022/07/18 09:36:19;;;;;;;7.50;1.60;;;;;;;;;;5111704;28;20015;-77
2022/07/18 09:38:45;;;;;;;8.98;1.38;;;;;;;;;;5093309;28;20374;-77
2022/07/18 09:41:12;;;;;;;5.50;1.50;;;;;;;;;;5111741;28;20026;-75
2022/07/18 09:43:38;;;;;;;5.53;1.63;;;;;;;;;;5112156;28;20019;-76
2022/07/18 09:46:06;;;;;;;10.20;1.55;;;;;;;;;;5104563;28;20465;-76
2022/07/18 09:48:32;;;;;;;5.25;1.60;;;;;;;;;;5096033;28;20032;-76
2022/07/18 09:51:01;;;;;;;12.85;1.45;;;;;;;;;;5095797;28;20028;-76
2022/07/18 09:53:28;;;;;;;6.32;1.63;;;;;;;;;;5096163;28;20020;-76
2022/07/18 09:55:55;;;;;;;8.85;1.65;;;;;;;;;;5110641;28;20093;-75
2022/07/18 09:58:25;;;;;;;5.28;1.42;;;;;;;;;;5115985;28;20055;-76
2022/07/18 10:00:52;;;;;;;7.30;1.23;;;;;;;;;;5115585;28;20024;-76
2022/07/18 10:03:19;;;;;;;6.25;1.45;;;;;;;;;;5115731;28;20019;-75
2022/07/18 10:05:46;;;;;;;4.38;1.40;;;;;;;;;;5115545;28;20018;-74
2022/07/18 10:08:14;;;;;;;13.07;2.00;;;;;;;;;;5115642;28;20023;-74
2022/07/18 10:10:41;;;;;;;9.10;2.10;;;;;;;;;;5115636;28;20027;-76
2022/07/18 10:13:08;;;;;;;9.77;1.80;;;;;;;;;;5115702;28;20073;-76
2022/07/18 10:15:35;;;;;;;11.77;1.88;;;;;;;;;;5115414;28;20035;-76
2022/07/18 10:18:01;;;;;;;10.05;2.10;;;;;;;;;;5115355;28;20485;-76
2022/07/18 10:20:32;;;;;;;4.82;1.90;;;;;;;;;;5114391;28;20028;-76
2022/07/18 10:23:01;;;;;;;12.50;2.30;;;;;;;;;;5112662;28;20470;-76
2022/07/18 10:25:27;;;;;;;8.48;1.77;;;;;;;;;;5115029;28;20019;-76
2022/07/18 10:28:10;;;;;;;8.75;1.67;;;;;;;;;;5114916;28;20085;-76
2022/07/18 10:30:39;;;;;;;10.57;1.67;;;;;;;;;;5112197;28;20026;-76
2022/07/18 10:33:24;;;;;;;9.15;2.08;;;;;;;;;;5114702;28;20048;-76
2022/07/18 10:36:05;;;;;;;6.22;1.55;;;;;;;;;;5113682;28;20024;-76
2022/07/18 10:38:31;;;;;;;9.45;1.75;;;;;;;;;;5114538;28;20481;-76
2022/07/18 10:41:11;;;;;;;3.30;1.83;;;;;;;;;;5114254;28;20466;-76
2022/07/18 10:43:38;;;;;;;9.73;1.80;;;;;;;;;;5111630;28;20026;-76
2022/07/18 10:46:05;;;;;;;8.07;1.60;;;;;;;;;;5113982;28;20450;-76
2022/07/18 10:48:37;;;;;;;4.95;1.25;;;;;;;;;;5113841;28;20033;-76
2022/07/18 10:51:10;;;;;;;5.88;1.30;;;;;;;;;;5113800;28;20050;-76
2022/07/18 10:53:54;;;;;;;4.93;1.70;;;;;;;;;;5111532;28;20080;-76
2022/07/18 10:56:40;;;;;;;6.80;1.50;;;;;;;;;;5111073;28;20502;-75
2022/07/18 10:59:16;;;;;;;4.47;1.65;;;;;;;;;;5094520;28;20442;-76
2022/07/18 11:01:49;;;;;;;7.03;1.60;;;;;;;;;;5111794;28;20032;-79
2022/07/18 11:04:22;;;;;;;7.45;1.55;;;;;;;;;;5114600;28;20030;-78
2022/07/18 11:06:55;;;;;;;5.68;1.38;;;;;;;;;;5115778;28;20016;-78
2022/07/18 11:09:37;;;;;;;6.15;1.50;;;;;;;;;;5115471;28;20072;-77
2022/07/18 11:12:03;;;;;;;;;;;;;;;;;;5116089;28;20139;-78
2022/07/18 11:14:48;;;;;;;6.78;1.50;;;;;;;;;;5115516;28;19907;-78
2022/07/18 11:17:14;;;;;;;12.13;2.08;;;;;;;;;;5112108;28;20043;-78
2022/07/18 11:19:40;;;;;;;2.35;1.50;;;;;;;;;;5111539;28;20061;-78
2022/07/18 11:22:06;;;;;;;11.68;2.22;;;;;;;;;;5114203;28;20050;-78
2022/07/18 11:24:32;;;;;;;5.85;1.52;;;;;;;;;;5114066;28;20163;-78
2022/07/18 11:26:58;;;;;;;2.70;1.40;;;;;;;;;;5114254;28;20020;-78
2022/07/18 11:29:24;;;;;;;4.70;1.30;;;;;;;;;;5114331;28;20425;-78
2022/07/18 11:31:50;;;;;;;3.75;1.70;;;;;;;;;;5114677;28;20054;-78
2022/07/18 11:34:16;;;;;;;5.80;1.60;;;;;;;;;;5114203;28;20028;-78
2022/07/18 11:36:43;;;;;;;13.35;1.67;;;;;;;;;;5114139;28;20084;-78
2022/07/18 11:39:13;;;;;;;4.95;1.40;;;;;;;;;;5113876;28;20419;-78
2022/07/18 11:41:40;;;;;;;8.40;1.60;;;;;;;;;;5111606;28;20012;-78
2022/07/18 11:44:06;;;;;;;5.68;1.60;;;;;;;;;;5114010;28;20043;-78
2022/07/18 11:46:32;;;;;;;4.72;1.60;;;;;;;;;;5112264;28;20061;-78
2022/07/18 11:49:00;;;;;;;6.28;1.98;;;;;;;;;;5114062;28;20475;-78
2022/07/18 11:51:26;;;;;;;9.65;1.90;;;;;;;;;;5113892;28;20370;-78
2022/07/18 11:53:53;;;;;;;7.88;2.15;;;;;;;;;;5113808;28;20023;-78
2022/07/18 11:56:20;;;;;;;5.25;2.05;;;;;;;;;;5113765;28;20015;-78
2022/07/18 11:58:48;;;;;;;14.70;2.30;;;;;;;;;;5114126;28;20102;-78
2022/07/18 12:01:14;;;;;;;5.22;2.10;;;;;;;;;;5114021;28;20111;-79
2022/07/18 12:03:41;;;;;;;3.97;2.10;;;;;;;;;;5114139;28;20028;-78
2022/07/18 12:06:20;;;;;;;4.65;1.63;;;;;;;;;;5114237;28;20046;-79
2022/07/18 12:08:56;;;;;;;7.00;1.98;;;;;;;;;;5113087;28;20433;-78
2022/07/18 12:11:34;;;;;;;9.63;2.03;;;;;;;;;;5114160;28;20172;-78
2022/07/18 12:14:09;;;;;;;12.02;1.80;;;;;;;;;;5114066;28;20039;-77
2022/07/18 12:16:38;;;;;;;6.20;1.70;;;;;;;;;;5113938;28;20039;-78
2022/07/18 12:19:13;;;;;;;5.57;1.55;;;;;;;;;;5109415;28;20035;-77
2022/07/18 12:21:40;;;;;;;6.03;1.90;;;;;;;;;;5113613;28;20016;-78
2022/07/18 12:24:25;;;;;;;6.78;1.80;;;;;;;;;;5114053;28;20032;-78
2022/07/18 12:27:20;;;;;;;5.80;1.67;;;;;;;;;;5113458;28;20038;-78
2022/07/18 12:29:53;;;;;;;4.22;1.50;;;;;;;;;;5111370;28;20039;-76
2022/07/18 12:32:23;;;;;;;6.85;2.30;;;;;;;;;;5113381;28;20031;-75
2022/07/18 12:34:56;;;;;;;4.68;1.60;;;;;;;;;;5113576;28;20084;-75
2022/07/18 12:37:25;;;;;;;4.97;1.77;;;;;;;;;;5113347;28;20363;-75
2022/07/18 12:40:21;;;;;;;12.88;2.10;;;;;;;;;;5113368;28;20043;-76
2022/07/18 12:42:47;;;;;;;7.57;1.77;;;;;;;;;;5030466;28;20040;-75
2022/07/18 12:45:14;;;;;;;5.60;1.45;;;;;;;;;;5029745;28;20029;-76
2022/07/18 12:47:40;;;;;;;14.52;1.90;;;;;;;;;;5030210;28;20030;-75
2022/07/18 12:50:07;;;;;;;12.52;1.50;;;;;;;;;;5029095;28;20121;-75
2022/07/18 12:52:33;;;;;;;3.38;1.63;;;;;;;;;;5030460;28;20607;-75
2022/07/18 12:54:59;;;;;;;3.85;1.70;;;;;;;;;;5030181;28;20045;-75
2022/07/18 12:57:26;;;;;;;5.43;1.70;;;;;;;;;;5030298;28;20037;-75
2022/07/18 12:59:52;;;;;;;14.02;1.90;;;;;;;;;;5030269;28;20045;-75
2022/07/18 13:02:18;;;;;;;6.63;1.50;;;;;;;;;;5030250;28;20029;-75
2022/07/18 13:04:44;;;;;;;5.80;1.85;;;;;;;;;;5030015;28;20045;-75
2022/07/18 13:07:10;;;;;;;6.25;1.48;;;;;;;;;;5030117;28;20060;-75
2022/07/18 13:09:36;;;;;;;7.55;1.80;;;;;;;;;;5030062;28;20041;-75
2022/07/18 13:12:03;;;;;;;6.55;1.60;;;;;;;;;;5030241;28;20037;-75
2022/07/18 13:14:29;;;;;;;7.90;2.08;;;;;;;;;;5030062;28;20421;-75
2022/07/18 13:16:55;;;;;;;3.05;1.63;;;;;;;;;;5029945;28;20488;-76
2022/07/18 13:19:21;;;;;;;3.40;1.52;;;;;;;;;;5057844;28;20048;-76
2022/07/18 13:21:48;;;;;;;3.30;1.83;;;;;;;;;;5092191;28;20366;-75
2022/07/18 13:24:14;;;;;;;5.43;1.80;;;;;;;;;;5092267;28;20089;-76
2022/07/18 13:26:41;;;;;;;4.18;1.58;;;;;;;;;;5092222;28;20024;-76
2022/07/18 13:29:07;;;;;;;5.13;1.58;;;;;;;;;;5092118;28;20127;-74
2022/07/18 13:31:36;;;;;;;6.15;1.90;;;;;;;;;;5090762;28;20805;-76
2022/07/18 13:34:02;;;;;;;5.25;2.30;;;;;;;;;;5103223;28;20032;-77
2022/07/18 13:36:29;;;;;;;21.35;2.30;;;;;;;;;;5103733;28;20038;-76
2022/07/18 13:38:55;;;;;;;10.60;1.90;;;;;;;;;;5107905;28;20422;-76
2022/07/18 13:41:21;;;;;;;3.67;1.95;;;;;;;;;;5112199;28;20034;-76
2022/07/18 13:43:48;;;;;;;5.72;1.80;;;;;;;;;;5112418;28;20016;-76
2022/07/18 13:46:16;;;;;;;8.57;2.28;;;;;;;;;;5111444;28;20023;-76
2022/07/18 13:48:42;;;;;;;4.53;1.48;;;;;;;;;;5112449;28;20436;-76
2022/07/18 13:51:10;;;;;;;3.58;1.60;;;;;;;;;;5111987;28;20058;-76
2022/07/18 13:53:36;;;;;;;5.57;1.63;;;;;;;;;;5112036;28;20024;-76
2022/07/18 13:56:02;;;;;;;3.83;1.52;;;;;;;;;;5112183;28;20028;-76
2022/07/18 13:58:28;;;;;;;3.08;1.60;;;;;;;;;;5112332;28;20118;-76
2022/07/18 14:00:54;;;;;;;5.90;1.58;;;;;;;;;;5111909;28;20114;-75
2022/07/18 14:03:20;;;;;;;3.85;1.55;;;;;;;;;;5112295;28;20031;-76
2022/07/18 14:05:46;;;;;;;3.03;1.52;;;;;;;;;;5111952;28;20016;-75
2022/07/18 14:08:12;;;;;;;5.03;1.63;;;;;;;;;;5112373;28;20504;-76
2022/07/18 14:10:38;;;;;;;4.40;1.42;;;;;;;;;;5111899;28;20095;-76
2022/07/18 14:13:04;;;;;;;2.20;1.50;;;;;;;;;;5111782;28;20031;-76
2022/07/18 14:15:30;;;;;;;3.70;1.52;;;;;;;;;;5100642;28;20111;-76
2022/07/18 14:17:56;;;;;;;4.05;1.50;;;;;;;;;;5099161;28;20410;-78
2022/07/18 14:20:22;;;;;;;3.30;1.58;;;;;;;;;;5104479;28;20016;-79
2022/07/18 14:22:48;;;;;;;4.50;2.00;;;;;;;;;;5101261;28;20020;-78
2022/07/18 14:25:15;;;;;;;2.25;1.40;;;;;;;;;;5104061;28;20020;-78
2022/07/18 14:27:42;;;;;;;5.20;1.60;;;;;;;;;;5104633;28;20043;-79
2022/07/18 14:30:10;;;;;;;4.90;1.77;;;;;;;;;;5101533;28;20482;-79
2022/07/18 14:32:36;;;;;;;2.38;1.60;;;;;;;;;;5109241;28;20024;-79
2022/07/18 14:35:03;;;;;;;5.55;1.38;;;;;;;;;;5113650;28;20036;-79
2022/07/18 14:37:29;;;;;;;3.35;1.40;;;;;;;;;;5111503;28;20024;-79
2022/07/18 14:39:55;;;;;;;6.30;1.60;;;;;;;;;;5107604;28;20020;-79
2022/07/18 14:42:21;;;;;;;5.38;1.70;;;;;;;;;;5109711;28;20023;-79
2022/07/18 14:44:47;;;;;;;2.03;1.30;;;;;;;;;;5108868;28;20051;-79